Terminal Aerodrome Forecast
Issued by NWS

Home | Current Version | Previous Version | Text Only | Print | Product List | Glossary Off
Versions: 1 2 3 4 5 6 7 8 9 10 11 12 13 14

000
FTUS43 KOAX 301604 AAA
TAFCDR
TAF AMD
KCDR 301604Z 3016/0112 02010KT 5SM -RA BR OVC008
     FM301900 03015KT P6SM -RA OVC015
     FM010100 35006KT P6SM -RASN OVC017=

USA.gov is the U.S. government's official web portal to all federal, state and local government web resources and services.